Time;durP1;ratioP1;P1;durP2;ratioP2;P2;SDS_P1;SDS_P2;PMS_P1;PMS_P2;Temp;Humidity;BMP_temperature;BMP_pressure;BME280_temperature;BME280_humidity;BME280_pressure;Samples;Min_cycle;Max_cycle;Signal;HPM_P1;HPM_P2
2021/05/07 00:00:58;;;;;;;4.90;2.30;;;;;;;4.11;61.59;99855.88;5077312;28;20543;-70
2021/05/07 00:03:24;;;;;;;7.83;2.10;;;;;;;4.19;61.11;99849.34;5094970;28;20222;-70
2021/05/07 00:05:54;;;;;;;2.40;1.57;;;;;;;4.20;61.15;99852.84;5093811;28;20207;-71
2021/05/07 00:08:27;;;;;;;4.23;1.77;;;;;;;4.15;61.37;99852.19;5077972;28;25082;-71
2021/05/07 00:10:57;;;;;;;2.57;1.57;;;;;;;4.10;61.67;99849.75;5093884;28;20163;-70
2021/05/07 00:13:22;;;;;;;3.73;1.90;;;;;;;4.06;62.12;99848.97;5094773;28;20224;-69
2021/05/07 00:15:48;;;;;;;2.57;1.60;;;;;;;4.05;62.08;99855.19;5093517;28;20188;-70
2021/05/07 00:18:13;;;;;;;7.50;1.90;;;;;;;4.11;62.93;99850.59;5093318;28;20170;-70
2021/05/07 00:20:38;;;;;;;3.63;1.87;;;;;;;4.10;62.86;99851.53;5094638;28;25144;-71
2021/05/07 00:23:04;;;;;;;4.87;1.90;;;;;;;4.04;64.20;99848.19;5093404;28;20284;-70
2021/05/07 00:25:29;;;;;;;5.77;1.80;;;;;;;3.99;64.90;99844.88;5093284;28;20186;-70
2021/05/07 00:28:06;;;;;;;7.13;1.80;;;;;;;3.93;64.74;99845.13;5092967;28;25135;-70
2021/05/07 00:30:32;;;;;;;3.87;1.80;;;;;;;3.91;64.62;99846.13;5093010;28;20670;-71
2021/05/07 00:32:57;;;;;;;2.60;1.53;;;;;;;3.90;65.07;99849.69;5094470;28;20196;-70
2021/05/07 00:35:23;;;;;;;3.93;1.90;;;;;;;3.81;65.78;99850.06;5094413;28;20179;-70
2021/05/07 00:37:49;;;;;;;5.50;1.93;;;;;;;3.75;66.63;99848.56;5093584;28;20176;-71
2021/05/07 00:40:15;;;;;;;6.30;2.20;;;;;;;3.66;66.79;99846.25;5092659;28;20635;-70
2021/05/07 00:42:40;;;;;;;3.47;2.20;;;;;;;3.63;67.12;99846.38;5092950;28;20223;-70
2021/05/07 00:45:07;;;;;;;9.40;2.00;;;;;;;3.61;67.46;99843.81;5093235;28;20212;-70
2021/05/07 00:47:37;;;;;;;6.23;2.03;;;;;;;3.56;67.32;99843.13;5093933;28;25081;-71
2021/05/07 00:50:04;;;;;;;5.23;2.13;;;;;;;3.56;67.85;99835.22;5092799;28;20170;-70
2021/05/07 00:52:33;;;;;;;2.43;1.70;;;;;;;3.48;66.71;99849.66;5075920;28;25116;-70
2021/05/07 00:54:59;;;;;;;3.73;1.37;;;;;;;3.42;65.00;99840.19;5092804;28;25057;-70
2021/05/07 00:57:24;;;;;;;4.53;1.50;;;;;;;3.40;64.38;99834.97;5092571;28;20185;-70
2021/05/07 00:59:50;;;;;;;4.77;1.60;;;;;;;3.52;64.05;99831.00;5092603;28;20170;-70
2021/05/07 01:02:15;;;;;;;2.80;1.50;;;;;;;3.50;64.51;99832.84;5092731;28;20625;-71
2021/05/07 01:04:40;;;;;;;6.63;1.83;;;;;;;3.45;65.04;99840.94;5093528;28;20645;-70
2021/05/07 01:07:05;;;;;;;4.93;1.60;;;;;;;3.41;66.48;99841.13;5095357;28;20190;-70
2021/05/07 01:09:31;;;;;;;2.50;1.33;;;;;;;3.29;67.56;99839.78;5092577;28;20206;-70
2021/05/07 01:11:56;;;;;;;2.30;1.33;;;;;;;3.16;67.93;99830.66;5092614;28;20647;-70
2021/05/07 01:14:22;;;;;;;6.77;1.57;;;;;;;3.14;69.29;99832.50;5092463;28;20205;-70
2021/05/07 01:16:47;;;;;;;3.17;1.20;;;;;;;3.03;69.10;99834.69;5092400;28;20181;-70
2021/05/07 01:19:14;;;;;;;6.40;1.60;;;;;;;2.95;69.46;99824.41;5093497;28;25124;-70
2021/05/07 01:21:39;;;;;;;2.17;1.40;;;;;;;2.85;69.47;99830.94;5092335;28;20184;-70
2021/05/07 01:24:05;;;;;;;2.37;1.50;;;;;;;2.83;70.15;99836.28;5093588;28;20197;-70
2021/05/07 01:26:33;;;;;;;2.73;1.47;;;;;;;2.78;69.51;99840.84;5093569;28;20284;-70
2021/05/07 01:28:58;;;;;;;2.53;1.23;;;;;;;2.71;70.03;99839.38;5093757;28;20205;-70
2021/05/07 01:31:24;;;;;;;4.30;1.20;;;;;;;2.66;70.69;99843.94;5093390;28;20181;-70
2021/05/07 01:33:49;;;;;;;1.73;1.30;;;;;;;2.63;70.95;99841.44;5075189;28;20616;-70
2021/05/07 01:36:14;;;;;;;3.80;1.30;;;;;;;2.63;70.73;99840.56;5093756;28;20174;-70
2021/05/07 01:38:40;;;;;;;2.27;1.43;;;;;;;2.61;70.23;99843.25;5093330;28;20169;-70
2021/05/07 01:41:05;;;;;;;3.00;1.50;;;;;;;2.67;70.44;99842.19;5093373;28;20220;-70
2021/05/07 01:43:33;;;;;;;3.23;2.00;;;;;;;2.72;69.94;99845.50;5092256;28;20200;-70
2021/05/07 01:45:58;;;;;;;2.90;1.83;;;;;;;2.73;69.76;99845.44;5092227;28;20659;-70
2021/05/07 01:48:23;;;;;;;2.47;1.57;;;;;;;2.70;70.54;99848.19;5091788;28;25090;-70
2021/05/07 01:50:49;;;;;;;4.87;1.73;;;;;;;2.71;70.98;99844.63;5093352;28;20185;-70
2021/05/07 01:53:15;;;;;;;3.87;1.67;;;;;;;2.69;71.03;99851.75;5095985;28;20213;-70
2021/05/07 01:55:43;;;;;;;3.00;1.80;;;;;;;2.60;71.55;99846.81;5097537;28;20614;-70
2021/05/07 01:58:10;;;;;;;5.77;1.97;;;;;;;2.60;71.84;99846.81;5096189;28;25098;-70
2021/05/07 02:00:36;;;;;;;2.77;2.10;;;;;;;2.59;72.39;99850.31;5097245;28;20700;-70
2021/05/07 02:03:04;;;;;;;3.53;2.00;;;;;;;2.48;72.31;99840.19;5096092;28;20200;-70
2021/05/07 02:05:32;;;;;;;3.53;1.80;;;;;;;2.44;71.94;99853.53;5095795;28;20196;-70
2021/05/07 02:07:58;;;;;;;1.73;1.40;;;;;;;2.37;72.06;99857.28;5079252;28;20197;-70
2021/05/07 02:10:25;;;;;;;2.90;1.50;;;;;;;2.41;72.46;99861.53;5096032;28;20177;-70
2021/05/07 02:12:52;;;;;;;2.77;2.00;;;;;;;2.37;72.87;99855.50;5095691;28;20234;-70
2021/05/07 02:15:19;;;;;;;2.17;1.73;;;;;;;2.34;72.85;99858.25;5096763;28;20184;-70
2021/05/07 02:17:45;;;;;;;3.13;1.70;;;;;;;2.31;73.12;99854.88;5095733;28;20173;-70
2021/05/07 02:20:13;;;;;;;5.20;1.70;;;;;;;2.25;73.63;99860.34;5095716;28;20661;-70
2021/05/07 02:22:39;;;;;;;4.73;2.00;;;;;;;2.25;73.70;99861.22;5096727;28;20665;-70
2021/05/07 02:25:05;;;;;;;4.43;1.60;;;;;;;2.23;73.46;99864.78;5095680;28;20180;-70
2021/05/07 02:27:30;;;;;;;4.57;1.93;;;;;;;2.18;73.29;99864.94;5096614;28;20188;-70
2021/05/07 02:29:55;;;;;;;3.30;1.93;;;;;;;2.16;73.68;99861.50;5095592;28;20181;-70
2021/05/07 02:32:21;;;;;;;3.50;1.93;;;;;;;2.15;74.08;99852.75;5098513;28;20187;-70
2021/05/07 02:34:46;;;;;;;5.23;2.00;;;;;;;2.10;74.40;99859.94;5101612;28;20206;-69
2021/05/07 02:37:11;;;;;;;3.63;1.80;;;;;;;2.10;74.30;99852.03;5082843;28;20177;-69
2021/05/07 02:39:36;;;;;;;5.37;2.03;;;;;;;2.07;74.66;99849.53;5097780;28;20645;-71
2021/05/07 02:42:02;;;;;;;3.80;2.13;;;;;;;2.10;74.89;99851.19;5097645;28;20189;-70
2021/05/07 02:44:28;;;;;;;3.00;1.57;;;;;;;2.02;74.83;99858.50;5096770;28;20196;-70
2021/05/07 02:46:53;;;;;;;3.90;1.70;;;;;;;1.97;74.84;99852.53;5080032;28;20186;-70
2021/05/07 02:49:18;;;;;;;2.60;1.80;;;;;;;1.91;75.15;99850.97;5096134;28;20205;-70
2021/05/07 02:51:43;;;;;;;4.13;1.50;;;;;;;1.86;75.13;99850.25;5096021;28;20189;-70
2021/05/07 02:54:09;;;;;;;4.20;1.63;;;;;;;1.82;75.71;99851.22;5097623;28;20212;-70
2021/05/07 02:56:34;;;;;;;3.30;1.50;;;;;;;1.88;75.84;99846.66;5097957;28;20180;-70
2021/05/07 02:58:59;;;;;;;4.77;1.50;;;;;;;1.85;76.11;99857.25;5096086;28;20233;-70
2021/05/07 03:01:25;;;;;;;5.60;1.77;;;;;;;1.82;75.47;99856.50;5097003;28;20177;-70
2021/05/07 03:03:50;;;;;;;2.13;1.43;;;;;;;1.82;76.17;99857.34;5095052;28;20212;-70
2021/05/07 03:06:15;;;;;;;2.40;1.77;;;;;;;1.83;76.13;99863.47;5095403;28;20189;-70
2021/05/07 03:08:41;;;;;;;3.10;1.80;;;;;;;1.86;76.47;99864.28;5095958;28;20284;-70
2021/05/07 03:11:06;;;;;;;3.60;2.50;;;;;;;1.84;76.18;99863.44;5095184;28;20171;-70
2021/05/07 03:13:32;;;;;;;4.43;2.50;;;;;;;1.77;76.74;99867.19;5095567;28;20352;-70
2021/05/07 03:15:57;;;;;;;4.23;1.70;;;;;;;1.86;77.44;99868.69;5094801;28;20272;-70
2021/05/07 03:18:23;;;;;;;6.00;2.40;;;;;;;1.96;76.48;99867.44;5094890;28;20203;-69
2021/05/07 03:20:50;;;;;;;5.77;2.57;;;;;;;1.99;76.27;99874.38;5095233;28;20612;-70
2021/05/07 03:23:15;;;;;;;6.23;2.27;;;;;;;1.98;76.20;99875.28;5094603;28;20203;-69
2021/05/07 03:25:41;;;;;;;5.03;2.50;;;;;;;1.87;75.66;99879.16;5077598;28;20587;-70
2021/05/07 03:28:07;;;;;;;5.67;2.20;;;;;;;1.84;77.72;99879.22;5094464;28;20249;-70
2021/05/07 03:30:33;;;;;;;6.07;2.03;;;;;;;1.92;78.07;99884.25;5094410;28;20267;-70
2021/05/07 03:33:03;;;;;;;5.00;2.00;;;;;;;1.86;77.05;99884.47;5094412;28;20193;-69
2021/05/07 03:35:30;;;;;;;4.60;2.23;;;;;;;1.74;77.74;99884.84;5096784;28;20515;-70
2021/05/07 03:37:55;;;;;;;7.93;2.50;;;;;;;1.77;77.50;99880.34;5098687;28;20171;-70
2021/05/07 03:40:21;;;;;;;6.03;2.10;;;;;;;1.89;77.26;99884.34;5098422;28;20180;-70
2021/05/07 03:42:46;;;;;;;6.83;2.43;;;;;;;1.95;76.87;99884.16;5095290;28;20176;-70
2021/05/07 03:45:13;;;;;;;6.00;2.27;;;;;;;2.15;76.35;99881.72;5095278;28;20256;-70
2021/05/07 03:47:38;;;;;;;2.90;2.20;;;;;;;2.37;75.89;99886.25;5095155;28;20168;-70
2021/05/07 03:50:05;;;;;;;3.03;2.00;;;;;;;2.61;73.87;99880.16;5094143;28;20177;-70
2021/05/07 03:52:30;;;;;;;7.47;2.40;;;;;;;2.75;74.43;99872.59;5095215;28;20181;-69
2021/05/07 03:54:55;;;;;;;5.53;2.33;;;;;;;2.92;71.35;99871.09;5117293;22;20238;-73
2021/05/07 03:57:22;;;;;;;3.97;1.77;;;;;;;2.99;70.75;99875.25;5096482;28;20183;-73
2021/05/07 03:59:47;;;;;;;4.13;2.37;;;;;;;2.99;71.07;99880.53;5096847;28;20594;-73
2021/05/07 04:02:13;;;;;;;7.83;2.13;;;;;;;2.92;71.79;99876.38;5095914;28;20173;-73
2021/05/07 04:04:39;;;;;;;3.27;1.80;;;;;;;2.75;73.48;99890.19;5080719;28;20190;-72
2021/05/07 04:07:05;;;;;;;8.30;2.00;;;;;;;2.70;73.11;99889.50;5074789;28;20202;-73
2021/05/07 04:09:35;;;;;;;2.63;2.30;;;;;;;2.62;74.02;99897.66;5074250;28;20278;-74
2021/05/07 04:12:13;;;;;;;6.10;2.23;;;;;;;2.62;73.25;99896.81;5076089;28;20662;-74
2021/05/07 04:14:38;;;;;;;9.40;2.03;;;;;;;2.81;70.79;99893.44;5074510;28;20202;-72
2021/05/07 04:17:03;;;;;;;5.93;2.00;;;;;;;2.99;69.89;99902.47;5075854;28;20182;-73
2021/05/07 04:19:29;;;;;;;3.67;1.90;;;;;;;3.12;70.84;99897.59;5076254;28;20638;-73
2021/05/07 04:21:54;;;;;;;4.80;2.00;;;;;;;3.24;71.20;99901.56;5076353;28;20270;-72
2021/05/07 04:24:19;;;;;;;8.73;2.37;;;;;;;3.32;70.91;99910.03;5076067;28;20567;-73
2021/05/07 04:26:44;;;;;;;5.47;2.23;;;;;;;3.40;71.23;99908.84;5076634;28;20206;-73
2021/05/07 04:29:10;;;;;;;2.47;1.90;;;;;;;3.25;71.14;99909.41;5076866;28;20236;-73
2021/05/07 04:31:35;;;;;;;3.43;2.03;;;;;;;3.13;72.29;99907.22;5076979;28;20190;-73
2021/05/07 04:34:00;;;;;;;6.27;1.97;;;;;;;3.08;71.01;99903.91;5077066;28;20189;-72
2021/05/07 04:36:26;;;;;;;4.97;2.10;;;;;;;3.12;71.18;99911.66;5076040;28;20182;-72
2021/05/07 04:38:55;;;;;;;3.37;2.07;;;;;;;3.15;70.88;99923.84;5075916;28;20509;-72
2021/05/07 04:41:20;;;;;;;6.43;2.33;;;;;;;3.03;71.90;99919.91;5073764;28;20178;-74
2021/05/07 04:43:45;;;;;;;6.93;2.03;;;;;;;2.80;72.48;99927.75;5074596;28;20674;-73
2021/05/07 04:46:10;;;;;;;4.50;1.93;;;;;;;3.01;72.00;99928.78;5075075;28;20170;-72
2021/05/07 04:48:36;;;;;;;4.97;1.80;;;;;;;3.06;71.93;99929.47;5080248;28;20195;-73
2021/05/07 04:51:01;;;;;;;5.50;2.40;;;;;;;3.17;71.83;99936.97;5079680;28;20238;-74
2021/05/07 04:53:26;;;;;;;10.57;2.20;;;;;;;3.23;71.95;99940.25;5076296;28;20218;-74
2021/05/07 04:55:52;;;;;;;10.23;2.90;;;;;;;3.40;71.45;99951.03;5075255;28;20167;-73
2021/05/07 04:58:17;;;;;;;8.00;2.40;;;;;;;3.61;71.41;99952.00;5075543;28;20181;-74
2021/05/07 05:00:42;;;;;;;6.57;1.93;;;;;;;3.98;69.50;99953.19;5075217;28;20629;-74
2021/05/07 05:03:07;;;;;;;5.83;1.80;;;;;;;4.16;69.27;99948.97;5075043;28;20182;-74
2021/05/07 05:05:33;;;;;;;5.43;1.87;;;;;;;4.30;69.08;99954.53;5075032;28;20167;-74
2021/05/07 05:07:58;;;;;;;6.90;2.33;;;;;;;4.09;68.87;99953.66;5074715;28;20272;-74
2021/05/07 05:10:24;;;;;;;5.50;2.27;;;;;;;4.23;68.16;99961.00;5075372;28;20179;-73
2021/05/07 05:12:49;;;;;;;5.83;2.30;;;;;;;4.23;68.80;99953.94;5078572;28;20218;-75
2021/05/07 05:15:15;;;;;;;7.00;3.43;;;;;;;4.23;68.80;99967.16;5075382;28;20245;-75
2021/05/07 05:17:41;;;;;;;5.07;2.77;;;;;;;4.35;68.60;99968.41;5075506;28;20231;-75
2021/05/07 05:20:07;;;;;;;5.10;2.13;;;;;;;4.50;67.89;99978.38;5076132;28;20182;-70
2021/05/07 05:22:33;;;;;;;11.37;2.23;;;;;;;4.57;67.23;99978.97;5075886;28;20216;-74
2021/05/07 05:25:03;;;;;;;11.17;3.17;;;;;;;4.70;67.50;99981.03;5080422;28;20194;-74
2021/05/07 05:27:29;;;;;;;5.67;2.60;;;;;;;4.82;67.28;99989.34;5079962;28;20177;-73
2021/05/07 05:29:54;;;;;;;10.57;4.77;;;;;;;4.94;67.24;99992.34;5077900;28;20194;-74
2021/05/07 05:32:19;;;;;;;11.93;4.53;;;;;;;5.01;67.13;99990.28;5076708;28;20186;-67
2021/05/07 05:34:45;;;;;;;9.47;4.40;;;;;;;5.16;67.36;99989.63;5074316;28;20550;-72
2021/05/07 05:37:11;;;;;;;5.33;2.83;;;;;;;5.25;66.98;99988.38;5055967;28;20174;-71
2021/05/07 05:39:36;;;;;;;8.70;3.13;;;;;;;5.36;66.83;99998.47;5074222;28;20178;-71
2021/05/07 05:42:01;;;;;;;14.00;5.33;;;;;;;5.44;67.31;99997.19;5073858;28;20174;-71
2021/05/07 05:44:26;;;;;;;8.73;2.50;;;;;;;5.46;67.44;99989.19;5073591;28;20198;-71
2021/05/07 05:46:52;;;;;;;8.07;2.50;;;;;;;5.53;67.55;99993.25;5072502;28;20183;-71
2021/05/07 05:49:17;;;;;;;6.60;2.17;;;;;;;5.51;67.20;100001.28;5072460;28;20198;-70
2021/05/07 05:51:43;;;;;;;8.30;2.67;;;;;;;5.57;67.22;100000.13;5073971;28;20647;-68
2021/05/07 05:54:08;;;;;;;6.60;2.00;;;;;;;5.62;67.39;100003.47;5074773;28;20236;-72
2021/05/07 05:56:33;;;;;;;11.97;3.70;;;;;;;5.62;67.62;100020.19;5056525;28;20269;-71
2021/05/07 05:58:59;;;;;;;5.20;2.77;;;;;;;5.66;67.50;100015.63;5074012;28;20201;-72
2021/05/07 06:01:24;;;;;;;9.23;3.57;;;;;;;5.75;67.83;100014.34;5074101;28;20186;-70
2021/05/07 06:03:49;;;;;;;9.23;5.20;;;;;;;5.95;67.05;100020.47;5073627;28;20199;-71
2021/05/07 06:06:15;;;;;;;7.70;3.30;;;;;;;6.05;67.31;100012.09;5073027;28;20179;-69
2021/05/07 06:08:40;;;;;;;7.57;2.50;;;;;;;6.20;66.90;100016.63;5073815;28;20206;-72
2021/05/07 06:11:06;;;;;;;6.10;2.27;;;;;;;6.28;65.89;100023.28;5073583;28;20224;-72
2021/05/07 06:13:31;;;;;;;8.70;2.47;;;;;;;6.31;65.49;100018.78;5073984;28;20269;-71
2021/05/07 06:15:56;;;;;;;7.50;2.20;;;;;;;6.35;64.86;100015.06;5055863;28;20498;-71
2021/05/07 06:18:22;;;;;;;8.33;3.70;;;;;;;6.27;66.11;100020.72;5072757;28;20178;-71
2021/05/07 06:20:47;;;;;;;7.00;2.73;;;;;;;6.37;65.53;100022.00;5073067;28;20171;-72
2021/05/07 06:23:12;;;;;;;9.83;3.10;;;;;;;6.44;65.90;100028.72;5074090;28;20214;-72
2021/05/07 06:25:38;;;;;;;11.07;2.53;;;;;;;6.57;64.96;100035.13;5074860;28;20171;-71
2021/05/07 06:28:04;;;;;;;8.83;2.60;;;;;;;6.51;65.19;100034.59;5072703;28;20207;-71
2021/05/07 06:30:29;;;;;;;7.10;3.30;;;;;;;6.46;65.72;100034.81;5075014;28;20190;-71
2021/05/07 06:32:54;;;;;;;11.10;3.50;;;;;;;6.36;65.75;100030.91;5075132;28;20178;-72
2021/05/07 06:35:20;;;;;;;9.50;2.60;;;;;;;6.34;66.27;100046.00;5072280;28;20211;-71
2021/05/07 06:37:45;;;;;;;11.17;2.50;;;;;;;6.33;66.87;100039.00;5074221;28;20175;-71
2021/05/07 06:40:11;;;;;;;7.63;3.47;;;;;;;6.24;66.42;100032.31;5077191;28;20171;-72
2021/05/07 06:42:38;;;;;;;6.93;3.23;;;;;;;6.03;67.95;100036.00;5078157;28;20642;-73
2021/05/07 06:45:08;;;;;;;10.13;2.97;;;;;;;6.29;67.56;100042.69;5077271;28;20595;-71
2021/05/07 06:47:33;;;;;;;11.50;4.03;;;;;;;6.37;66.80;100035.25;5077035;28;20245;-72
2021/05/07 06:49:59;;;;;;;10.10;4.13;;;;;;;6.44;66.06;100041.97;5076347;28;20272;-70
2021/05/07 06:52:24;;;;;;;16.13;7.80;;;;;;;6.49;67.10;100039.09;5077906;28;20179;-72
2021/05/07 06:54:50;;;;;;;10.00;5.13;;;;;;;6.38;66.98;100041.41;5076804;28;20675;-74
2021/05/07 06:57:16;;;;;;;9.97;2.97;;;;;;;6.66;66.02;100036.47;5076304;28;20203;-69
2021/05/07 06:59:46;;;;;;;12.87;3.90;;;;;;;6.57;65.04;100051.03;5076544;28;20183;-70
2021/05/07 07:02:11;;;;;;;8.53;3.17;;;;;;;6.61;65.72;100043.78;5078165;28;20171;-71
2021/05/07 07:04:36;;;;;;;6.10;2.00;;;;;;;6.70;65.20;100043.38;5080191;28;20540;-71
2021/05/07 07:07:02;;;;;;;9.50;2.47;;;;;;;6.69;66.02;100043.41;5077823;28;20181;-71
2021/05/07 07:09:27;;;;;;;10.37;3.30;;;;;;;6.71;65.84;100046.88;5076741;28;20206;-72
2021/05/07 07:11:53;;;;;;;6.97;2.87;;;;;;;6.72;65.73;100048.59;5077075;28;20209;-72
2021/05/07 07:14:18;;;;;;;5.77;1.60;;;;;;;6.82;64.53;100047.19;5076879;28;20674;-70
2021/05/07 07:16:44;;;;;;;5.80;2.53;;;;;;;6.86;64.44;100051.41;5077261;28;20170;-70
2021/05/07 07:19:10;;;;;;;9.83;1.90;;;;;;;6.87;63.54;100061.09;5077234;28;20179;-71
2021/05/07 07:21:35;;;;;;;8.70;2.60;;;;;;;6.82;64.52;100055.16;5077513;28;20175;-72
2021/05/07 07:24:01;;;;;;;7.67;1.80;;;;;;;6.93;63.78;100060.78;5058511;28;20194;-69
2021/05/07 07:26:26;;;;;;;8.23;1.50;;;;;;;6.90;62.51;100056.47;5075520;28;20589;-70
2021/05/07 07:28:53;;;;;;;4.90;2.40;;;;;;;6.83;63.90;100059.53;5076238;28;20197;-71
2021/05/07 07:31:19;;;;;;;4.87;1.70;;;;;;;6.98;62.34;100063.19;5076897;28;20527;-71
2021/05/07 07:33:45;;;;;;;5.53;2.13;;;;;;;7.05;61.98;100060.13;5076811;28;20195;-72
2021/05/07 07:36:10;;;;;;;5.60;2.00;;;;;;;7.11;62.35;100064.31;5077214;28;20175;-70
2021/05/07 07:38:35;;;;;;;8.03;1.70;;;;;;;7.14;61.62;100070.31;5077386;28;20570;-71
2021/05/07 07:41:00;;;;;;;3.87;1.37;;;;;;;7.26;60.91;100067.97;5076823;28;20233;-70
2021/05/07 07:43:26;;;;;;;7.50;2.70;;;;;;;7.27;61.44;100077.66;5077201;28;20197;-71
2021/05/07 07:45:51;;;;;;;6.70;1.77;;;;;;;7.37;60.47;100076.22;5076201;28;20175;-71
2021/05/07 07:48:17;;;;;;;8.20;2.13;;;;;;;7.40;60.39;100076.06;5078669;28;20209;-69
2021/05/07 07:50:43;;;;;;;7.83;2.50;;;;;;;7.42;61.08;100077.69;5075815;28;20169;-72
2021/05/07 07:53:08;;;;;;;5.80;1.50;;;;;;;7.50;60.06;100072.88;5075150;28;20177;-71
2021/05/07 07:55:34;;;;;;;4.67;1.50;;;;;;;7.70;59.08;100079.78;5076802;28;20170;-71
2021/05/07 07:58:00;;;;;;;5.93;1.67;;;;;;;7.79;59.30;100081.06;5074359;28;20200;-71
2021/05/07 08:00:25;;;;;;;6.30;1.63;;;;;;;7.85;59.74;100086.09;5075567;28;20225;-71
2021/05/07 08:02:50;;;;;;;4.43;1.43;;;;;;;8.01;59.16;100089.63;5075410;28;20216;-71
2021/05/07 08:05:17;;;;;;;3.47;1.40;;;;;;;7.98;58.87;100087.13;5059825;28;20202;-70
2021/05/07 08:07:43;;;;;;;5.27;1.20;;;;;;;8.28;57.08;100092.59;5076416;28;20657;-71
2021/05/07 08:10:09;;;;;;;4.93;1.43;;;;;;;8.37;57.87;100091.25;5076136;28;20175;-72
2021/05/07 08:12:34;;;;;;;10.03;1.60;;;;;;;8.55;57.42;100089.34;5077131;28;20279;-72
2021/05/07 08:14:59;;;;;;;9.47;1.83;;;;;;;7.90;59.89;100101.78;5076977;28;20217;-71
2021/05/07 08:17:25;;;;;;;7.13;1.40;;;;;;;8.60;58.08;100090.84;5076822;28;20647;-71
2021/05/07 08:19:50;;;;;;;4.13;1.33;;;;;;;8.96;56.10;100105.66;5076018;28;20167;-71
2021/05/07 08:22:16;;;;;;;7.43;1.40;;;;;;;9.04;54.47;100090.94;5076311;28;20186;-73
2021/05/07 08:24:42;;;;;;;7.33;1.40;;;;;;;9.00;55.45;100099.19;5074002;28;20678;-71
2021/05/07 08:27:07;;;;;;;7.40;1.70;;;;;;;9.25;54.84;100090.63;5075293;28;20171;-71
2021/05/07 08:29:34;;;;;;;4.80;1.63;;;;;;;9.26;54.47;100102.97;5075080;28;20205;-72
2021/05/07 08:31:59;;;;;;;8.23;1.50;;;;;;;9.29;52.35;100109.00;5074499;28;20626;-71
2021/05/07 08:34:24;;;;;;;4.07;1.60;;;;;;;9.24;51.67;100108.41;5075764;28;20198;-73
2021/05/07 08:36:49;;;;;;;7.40;1.50;;;;;;;9.32;51.47;100110.63;5074898;28;20178;-73
2021/05/07 08:39:15;;;;;;;7.20;1.40;;;;;;;9.29;52.63;100111.66;5073815;28;20204;-73
2021/05/07 08:41:43;;;;;;;6.50;1.40;;;;;;;9.31;52.43;100116.91;5073236;28;20190;-72
2021/05/07 08:44:10;;;;;;;5.93;1.50;;;;;;;9.35;53.45;100118.44;5075061;28;20195;-71
2021/05/07 08:46:36;;;;;;;4.50;1.17;;;;;;;9.46;53.46;100115.13;5073826;28;20175;-71
2021/05/07 08:49:02;;;;;;;2.77;1.23;;;;;;;9.09;52.83;100130.59;5056175;28;20701;-71
2021/05/07 08:51:27;;;;;;;6.93;1.70;;;;;;;9.18;53.24;100135.38;5072640;28;20206;-71
2021/05/07 08:53:53;;;;;;;7.47;1.53;;;;;;;9.26;51.31;100127.81;5072693;28;20552;-72
2021/05/07 08:56:18;;;;;;;2.90;1.27;;;;;;;9.27;51.23;100132.19;5073761;28;20179;-72
2021/05/07 08:58:45;;;;;;;6.17;1.33;;;;;;;9.45;50.13;100126.72;5073507;28;20171;-71
2021/05/07 09:01:11;;;;;;;6.07;1.63;;;;;;;9.51;50.48;100127.22;5073153;28;20182;-71
2021/05/07 09:03:46;;;;;;;7.53;1.43;;;;;;;9.52;50.88;100144.06;5072601;28;20253;-71
2021/05/07 09:06:19;;;;;;;4.47;1.30;;;;;;;9.62;51.27;100137.22;5071682;28;20241;-71
2021/05/07 09:08:45;;;;;;;3.27;1.57;;;;;;;9.64;50.81;100136.19;5072394;28;20209;-71
2021/05/07 09:11:11;;;;;;;7.93;2.30;;;;;;;9.78;50.58;100138.03;5071900;28;20182;-72
2021/05/07 09:13:36;;;;;;;5.37;1.53;;;;;;;9.66;50.06;100144.09;5071650;28;20194;-71
2021/05/07 09:16:06;;;;;;;3.93;1.20;;;;;;;9.48;51.47;100134.53;5072540;28;20175;-71
2021/05/07 09:18:49;;;;;;;5.77;1.23;;;;;;;9.46;50.02;100137.28;5071735;28;20191;-71
2021/05/07 09:21:15;;;;;;;5.97;1.17;;;;;;;9.46;51.10;100139.97;5055971;28;20263;-71
2021/05/07 09:23:42;;;;;;;6.07;1.60;;;;;;;9.57;50.05;100145.50;5072066;28;20683;-72
2021/05/07 09:26:07;;;;;;;7.57;1.20;;;;;;;9.62;50.97;100147.88;5055999;28;20640;-72
2021/05/07 09:28:33;;;;;;;4.87;1.30;;;;;;;9.57;50.51;100156.16;5071514;28;20198;-72
2021/05/07 09:31:19;;;;;;;6.07;1.20;;;;;;;9.61;48.64;100155.03;5071924;28;20639;-72
2021/05/07 09:33:46;;;;;;;5.23;1.53;;;;;;;9.65;48.57;100145.03;5072646;28;20226;-72
2021/05/07 09:36:22;;;;;;;7.77;1.70;;;;;;;9.31;50.90;100152.38;5071158;28;20171;-72
2021/05/07 09:38:48;;;;;;;4.63;1.20;;;;;;;9.64;50.40;100173.47;5072251;28;20175;-72
2021/05/07 09:41:13;;;;;;;3.67;1.27;;;;;;;9.51;50.68;100161.84;5072189;28;20171;-70
2021/05/07 09:43:38;;;;;;;6.90;1.40;;;;;;;9.78;50.78;100167.34;5072418;28;20272;-71
2021/05/07 09:46:04;;;;;;;10.03;1.80;;;;;;;9.81;50.88;100163.66;5072753;28;20610;-72
2021/05/07 09:48:29;;;;;;;4.83;1.20;;;;;;;9.67;50.20;100167.16;5071598;28;20340;-71
2021/05/07 09:51:03;;;;;;;5.83;1.30;;;;;;;9.99;49.35;100168.69;5073385;28;20638;-71
2021/05/07 09:56:16;;;;;;;4.83;1.43;;;;;;;10.16;46.64;100165.03;5090308;28;20210;-67
2021/05/07 09:58:41;;;;;;;2.03;1.03;;;;;;;10.55;46.15;100177.72;5074448;28;20206;-67
2021/05/07 10:01:07;;;;;;;8.83;4.20;;;;;;;10.63;46.40;100163.88;5074680;28;20258;-68
2021/05/07 10:03:33;;;;;;;6.60;3.20;;;;;;;10.42;46.49;100175.94;5074523;28;20643;-68
2021/05/07 10:05:58;;;;;;;6.33;1.80;;;;;;;9.76;48.33;100177.25;5092717;28;20274;-69
2021/05/07 10:08:24;;;;;;;4.80;1.33;;;;;;;9.95;48.28;100176.97;5075065;28;20683;-68
2021/05/07 10:10:49;;;;;;;4.27;2.03;;;;;;;10.58;46.80;100174.00;5074369;28;20170;-68
2021/05/07 10:13:23;;;;;;;11.03;5.73;;;;;;;11.06;44.95;100183.31;5093679;28;20170;-68
2021/05/07 10:16:00;;;;;;;3.47;1.60;;;;;;;10.91;44.55;100184.34;5084080;28;20232;-68
2021/05/07 10:18:25;;;;;;;6.57;1.77;;;;;;;10.70;43.30;100178.53;5095957;28;20348;-68
2021/05/07 10:20:59;;;;;;;5.63;2.27;;;;;;;10.53;44.59;100166.28;5096527;28;20190;-67
2021/05/07 10:23:24;;;;;;;4.70;1.23;;;;;;;10.20;47.01;100176.34;5096793;28;20174;-69
2021/05/07 10:25:59;;;;;;;2.27;1.23;;;;;;;10.14;47.44;100179.41;5096649;28;20208;-67
2021/05/07 10:28:28;;;;;;;2.57;1.33;;;;;;;9.76;49.03;100181.72;5096506;28;20269;-68
2021/05/07 10:31:08;;;;;;;6.50;1.73;;;;;;;9.60;48.14;100184.41;5096699;28;20174;-67
2021/05/07 10:33:33;;;;;;;4.00;1.63;;;;;;;9.99;46.24;100171.38;5097156;28;20237;-68
2021/05/07 10:35:59;;;;;;;5.73;1.63;;;;;;;10.31;44.65;100200.56;5078295;28;20629;-69
2021/05/07 10:38:26;;;;;;;4.03;1.23;;;;;;;9.97;44.87;100183.06;5096428;28;20174;-67
2021/05/07 10:41:11;;;;;;;2.83;1.00;;;;;;;9.99;45.57;100184.69;5096176;28;20602;-67
2021/05/07 10:43:42;;;;;;;3.73;1.30;;;;;;;10.05;45.51;100179.97;5078161;28;20170;-67
2021/05/07 10:46:20;;;;;;;2.47;1.10;;;;;;;10.50;43.63;100193.16;5096076;28;20701;-67
2021/05/07 10:48:52;;;;;;;4.60;1.20;;;;;;;10.75;42.27;100180.91;5096369;28;20187;-67
2021/05/07 10:51:17;;;;;;;4.37;1.10;;;;;;;10.77;42.80;100182.53;5096632;28;20184;-68
2021/05/07 10:53:42;;;;;;;4.33;1.30;;;;;;;10.25;43.84;100198.28;5095998;28;20530;-68
2021/05/07 10:56:14;;;;;;;2.70;1.20;;;;;;;10.56;44.30;100200.78;5096621;28;20166;-68
2021/05/07 10:58:40;;;;;;;3.07;1.13;;;;;;;11.83;42.65;100200.50;5097448;28;20177;-67
2021/05/07 11:01:26;;;;;;;2.40;1.20;;;;;;;13.50;39.99;100203.72;5096153;28;20186;-67
2021/05/07 11:04:03;;;;;;;3.20;1.10;;;;;;;14.73;35.84;100195.94;5077746;28;20735;-67
2021/05/07 11:06:30;;;;;;;4.63;1.00;;;;;;;15.26;35.17;100196.97;5095956;28;20252;-67
2021/05/07 11:08:55;;;;;;;1.90;0.90;;;;;;;16.58;32.16;100210.84;5095666;28;20554;-67
2021/05/07 11:11:21;;;;;;;2.47;1.03;;;;;;;16.66;31.78;100210.22;5096036;28;20167;-68
2021/05/07 11:13:46;;;;;;;7.47;1.43;;;;;;;17.12;31.36;100207.84;5096192;28;20251;-68
2021/05/07 11:16:11;;;;;;;3.80;1.33;;;;;;;17.87;30.59;100202.84;5096065;28;20174;-68
2021/05/07 11:18:36;;;;;;;1.20;0.80;;;;;;;17.48;28.90;100205.50;5096284;28;20287;-68
2021/05/07 11:21:12;;;;;;;3.63;1.20;;;;;;;15.10;33.48;100188.44;5096403;28;20582;-68
2021/05/07 11:23:37;;;;;;;2.03;0.87;;;;;;;16.27;32.37;100196.50;5076992;28;20217;-68
2021/05/07 11:26:07;;;;;;;3.93;1.20;;;;;;;17.76;28.59;100209.22;5095713;28;20200;-68
2021/05/07 11:28:44;;;;;;;4.23;1.20;;;;;;;15.14;31.74;100184.50;5077858;28;20281;-67
2021/05/07 11:31:10;;;;;;;2.50;1.13;;;;;;;13.41;34.33;100199.91;5096852;28;20178;-68
2021/05/07 11:33:35;;;;;;;3.27;1.07;;;;;;;11.85;36.75;100190.53;5080137;28;20500;-69
2021/05/07 11:36:09;;;;;;;2.20;0.93;;;;;;;10.95;38.26;100194.72;5077377;28;20208;-67